createdAt,value
2022-10-09T00:01:25.709Z,3.42
2022-10-09T00:03:54.443Z,3.92
2022-10-09T00:06:27.331Z,3.00
2022-10-09T00:08:54.076Z,3.47
2022-10-09T00:11:23.989Z,3.10
2022-10-09T00:13:51.951Z,3.50
2022-10-09T00:16:21.049Z,3.42
2022-10-09T00:18:48.298Z,3.08
2022-10-09T00:21:34.748Z,2.67
2022-10-09T00:24:03.438Z,3.30
2022-10-09T00:26:30.327Z,2.60
2022-10-09T00:28:59.497Z,2.75
2022-10-09T00:31:26.300Z,2.80
2022-10-09T00:33:53.011Z,2.85
2022-10-09T00:36:22.309Z,2.85
2022-10-09T00:38:51.760Z,3.25
2022-10-09T00:41:22.989Z,3.83
2022-10-09T00:43:56.264Z,3.27
2022-10-09T00:46:42.067Z,3.60
2022-10-09T00:49:29.276Z,3.33
2022-10-09T00:52:02.884Z,4.10
2022-10-09T00:54:33.455Z,2.97
2022-10-09T00:57:02.981Z,3.80
2022-10-09T00:59:31.196Z,3.88
2022-10-09T01:02:00.679Z,4.40
2022-10-09T01:04:27.587Z,3.65
2022-10-09T01:07:12.096Z,4.28
2022-10-09T01:09:43.485Z,3.28
2022-10-09T01:12:31.546Z,3.88
2022-10-09T01:15:19.472Z,3.80
2022-10-09T01:18:21.673Z,3.15
2022-10-09T01:20:54.729Z,3.40
2022-10-09T01:23:45.043Z,4.30
2022-10-09T01:26:30.607Z,3.95
2022-10-09T01:29:07.133Z,3.63
2022-10-09T01:31:38.240Z,3.47
2022-10-09T01:34:07.012Z,4.03
2022-10-09T01:36:38.270Z,3.38
2022-10-09T01:39:07.004Z,4.30
2022-10-09T01:41:36.425Z,3.50
2022-10-09T01:44:03.522Z,3.35
2022-10-09T01:46:34.017Z,3.83
2022-10-09T01:49:17.363Z,3.05
2022-10-09T01:52:03.091Z,3.58
2022-10-09T01:55:13.707Z,3.30
2022-10-09T01:57:55.315Z,3.00
2022-10-09T02:00:22.551Z,3.15
2022-10-09T02:02:53.818Z,2.92
2022-10-09T02:05:23.316Z,3.80
2022-10-09T02:07:50.131Z,2.47
2022-10-09T02:10:18.576Z,3.60
2022-10-09T02:12:57.504Z,4.15
2022-10-09T02:15:37.769Z,3.85
2022-10-09T02:18:12.979Z,4.03
2022-10-09T02:20:45.520Z,4.10
2022-10-09T02:23:16.912Z,4.47
2022-10-09T02:25:46.235Z,4.05
2022-10-09T02:28:13.011Z,3.22
2022-10-09T02:30:51.090Z,3.97
2022-10-09T02:33:17.847Z,3.90
2022-10-09T02:35:44.824Z,3.28
2022-10-09T02:38:11.504Z,3.15
2022-10-09T02:40:38.151Z,3.60
2022-10-09T02:43:06.981Z,3.03
2022-10-09T02:45:36.124Z,3.72
2022-10-09T02:48:05.176Z,3.88
2022-10-09T02:50:31.903Z,4.20
2022-10-09T02:52:58.563Z,3.80
2022-10-09T02:55:25.224Z,4.18
2022-10-09T02:57:52.256Z,3.22
2022-10-09T03:00:21.177Z,3.85
2022-10-09T03:02:50.327Z,3.80
2022-10-09T03:05:17.285Z,3.85
2022-10-09T03:07:51.078Z,3.13
2022-10-09T03:10:19.364Z,3.70
2022-10-09T03:12:46.688Z,4.07
2022-10-09T03:15:14.240Z,4.13
2022-10-09T03:17:40.941Z,3.25
2022-10-09T03:20:08.160Z,4.22
2022-10-09T03:22:34.848Z,2.90
2022-10-09T03:25:03.900Z,3.95
2022-10-09T03:27:33.171Z,3.28
2022-10-09T03:30:02.387Z,3.40
2022-10-09T03:32:29.195Z,3.50
2022-10-09T03:34:55.893Z,3.05
2022-10-09T03:37:22.602Z,3.55
2022-10-09T03:39:49.305Z,4.28
2022-10-09T03:42:18.165Z,3.63
2022-10-09T03:44:44.844Z,3.95
2022-10-09T03:47:13.948Z,4.28
2022-10-09T03:49:43.260Z,3.58
2022-10-09T03:52:12.349Z,3.78
2022-10-09T03:54:38.999Z,4.30
2022-10-09T03:57:05.654Z,4.80
2022-10-09T03:59:39.611Z,3.53
2022-10-09T04:02:06.337Z,3.65
2022-10-09T04:04:35.570Z,2.75
2022-10-09T04:07:04.728Z,3.95
2022-10-09T04:09:31.364Z,3.58
2022-10-09T04:11:58.023Z,3.80
2022-10-09T04:14:24.718Z,3.60
2022-10-09T04:16:51.365Z,3.97
2022-10-09T04:19:18.036Z,3.42
2022-10-09T04:21:47.174Z,4.00
2022-10-09T04:24:13.864Z,3.83
2022-10-09T04:26:42.804Z,3.75
2022-10-09T04:29:12.832Z,4.35
2022-10-09T04:31:39.599Z,3.20
2022-10-09T04:34:11.311Z,3.80
2022-10-09T04:36:40.135Z,3.70
2022-10-09T04:39:09.513Z,3.30
2022-10-09T04:41:38.663Z,3.20
2022-10-09T04:44:07.907Z,3.47
2022-10-09T04:46:34.637Z,3.25
2022-10-09T04:49:01.547Z,2.90
2022-10-09T04:51:28.270Z,3.50
2022-10-09T04:54:00.784Z,2.83
2022-10-09T04:56:27.684Z,3.10
2022-10-09T04:58:54.343Z,6.95
2022-10-09T05:01:24.598Z,4.25
2022-10-09T05:03:52.601Z,3.10
2022-10-09T05:06:20.682Z,3.08
2022-10-09T05:08:47.965Z,3.78
2022-10-09T05:11:21.927Z,3.75
2022-10-09T05:13:53.865Z,3.60
2022-10-09T05:16:29.114Z,5.30
2022-10-09T05:19:00.721Z,4.10
2022-10-09T05:21:28.540Z,3.45
2022-10-09T05:24:00.520Z,3.60
2022-10-09T05:28:58.685Z,2.30
2022-10-09T05:31:29.468Z,4.03
2022-10-09T05:33:59.165Z,3.75
2022-10-09T05:36:30.505Z,3.45
2022-10-09T05:38:57.638Z,3.40
2022-10-09T05:41:28.083Z,2.97
2022-10-09T05:43:55.092Z,3.72
2022-10-09T05:46:24.516Z,3.00
2022-10-09T05:48:53.523Z,3.67
2022-10-09T05:51:22.893Z,2.85
2022-10-09T05:53:50.358Z,2.75
2022-10-09T05:56:26.866Z,3.85
2022-10-09T05:58:54.821Z,3.30
2022-10-09T06:01:23.404Z,3.03
2022-10-09T06:03:52.041Z,4.47
2022-10-09T06:06:20.352Z,11.85
2022-10-09T06:08:49.895Z,12.82
2022-10-09T06:11:42.985Z,4.22
2022-10-09T06:14:15.517Z,4.43
2022-10-09T06:16:44.401Z,3.63
2022-10-09T06:19:19.383Z,3.83
2022-10-09T06:21:47.129Z,3.28
2022-10-09T06:24:27.305Z,3.00
2022-10-09T06:26:55.331Z,2.60
2022-10-09T06:29:24.243Z,3.00
2022-10-09T06:31:53.090Z,3.17
2022-10-09T06:34:20.029Z,2.85
2022-10-09T06:36:46.769Z,3.15
2022-10-09T06:39:18.428Z,3.30
2022-10-09T06:41:45.190Z,3.35
2022-10-09T06:44:17.368Z,3.10
2022-10-09T06:46:48.393Z,3.10
2022-10-09T06:49:15.101Z,3.60
2022-10-09T06:51:44.375Z,3.35
2022-10-09T06:54:13.922Z,3.08
2022-10-09T06:56:41.078Z,3.67
2022-10-09T06:59:07.991Z,3.33
2022-10-09T07:01:35.249Z,4.47
2022-10-09T07:04:07.476Z,4.00
2022-10-09T07:06:38.153Z,3.47
2022-10-09T07:09:12.246Z,3.95
2022-10-09T07:11:43.751Z,4.10
2022-10-09T07:14:16.336Z,3.75
2022-10-09T07:16:45.754Z,3.65
2022-10-09T07:19:13.464Z,3.53
2022-10-09T07:21:45.999Z,4.57
2022-10-09T07:24:20.300Z,3.75
2022-10-09T07:26:49.982Z,3.60
2022-10-09T07:29:21.160Z,3.90
2022-10-09T07:31:50.397Z,4.13
2022-10-09T07:34:19.492Z,3.30
2022-10-09T07:36:51.104Z,4.45
2022-10-09T07:39:19.295Z,4.50
2022-10-09T07:41:48.373Z,4.40
2022-10-09T07:44:15.216Z,4.07
2022-10-09T07:46:42.007Z,4.10
2022-10-09T07:49:13.315Z,4.28
2022-10-09T07:51:42.517Z,2.97
2022-10-09T07:54:11.710Z,4.05
2022-10-09T07:56:43.582Z,3.75
2022-10-09T07:59:14.972Z,3.58
2022-10-09T08:01:42.475Z,2.67
2022-10-09T08:04:11.681Z,5.50
2022-10-09T08:06:38.435Z,4.93
2022-10-09T08:09:06.518Z,3.92
2022-10-09T08:11:40.407Z,4.80
2022-10-09T08:14:14.142Z,4.25
2022-10-09T08:16:45.866Z,4.70
2022-10-09T08:19:14.831Z,4.30
2022-10-09T08:21:41.586Z,3.38
2022-10-09T08:24:13.240Z,3.33
2022-10-09T08:26:44.952Z,4.43
2022-10-09T08:29:13.952Z,3.38
2022-10-09T08:31:42.945Z,3.65
2022-10-09T08:34:10.521Z,3.30
2022-10-09T08:36:37.222Z,3.83
2022-10-09T08:39:06.261Z,3.45
2022-10-09T08:41:32.899Z,2.80
2022-10-09T08:44:05.428Z,3.00
2022-10-09T08:46:59.377Z,2.70
2022-10-09T08:49:36.571Z,2.70
2022-10-09T08:52:26.682Z,2.88
2022-10-09T08:54:57.539Z,2.30
2022-10-09T08:57:31.120Z,2.40
2022-10-09T08:59:57.932Z,2.22
2022-10-09T09:02:38.333Z,1.90
2022-10-09T09:05:20.241Z,1.85
2022-10-09T09:08:17.789Z,2.42
2022-10-09T09:11:11.272Z,1.98
2022-10-09T09:13:40.396Z,1.52
2022-10-09T09:16:18.055Z,1.50
2022-10-09T09:19:02.012Z,2.00
2022-10-09T09:21:35.199Z,1.40
2022-10-09T09:24:05.348Z,1.95
2022-10-09T09:26:39.162Z,1.65
2022-10-09T09:29:14.979Z,1.63
2022-10-09T09:31:45.512Z,1.77
2022-10-09T09:34:35.189Z,1.48
2022-10-09T09:37:04.731Z,1.20
2022-10-09T09:42:26.557Z,1.40
2022-10-09T09:44:59.304Z,1.40
2022-10-09T09:47:38.833Z,1.25
2022-10-09T09:50:28.580Z,1.23
2022-10-09T09:53:00.514Z,1.27
2022-10-09T09:55:33.461Z,1.88
2022-10-09T09:58:06.934Z,1.48
2022-10-09T10:00:34.528Z,1.50
2022-10-09T10:03:15.643Z,1.00
2022-10-09T10:05:43.655Z,1.35
2022-10-09T10:08:24.822Z,1.30
2022-10-09T10:10:53.813Z,1.50
2022-10-09T10:13:32.670Z,1.65
2022-10-09T10:16:07.871Z,1.50
2022-10-09T10:18:45.172Z,1.20
2022-10-09T10:21:15.931Z,1.25
2022-10-09T10:23:51.092Z,1.23
2022-10-09T10:26:27.176Z,1.38
2022-10-09T10:29:19.108Z,1.52
2022-10-09T10:32:11.467Z,1.25
2022-10-09T10:37:17.929Z,1.15
2022-10-09T10:40:10.655Z,0.95
2022-10-09T10:42:49.647Z,1.40
2022-10-09T10:45:19.331Z,1.77
2022-10-09T10:47:51.816Z,1.27
2022-10-09T10:50:20.791Z,1.00
2022-10-09T10:53:06.312Z,1.10
2022-10-09T10:55:38.795Z,1.00
2022-10-09T10:58:24.496Z,1.00
2022-10-09T11:01:26.092Z,0.98
2022-10-09T11:04:16.877Z,1.10
2022-10-09T11:06:49.492Z,0.90
2022-10-09T11:09:22.110Z,0.90
2022-10-09T11:11:57.642Z,1.25
2022-10-09T11:14:51.645Z,1.08
2022-10-09T11:17:27.340Z,1.25
2022-10-09T11:20:25.221Z,1.20
2022-10-09T11:23:12.281Z,1.25
2022-10-09T11:25:44.013Z,1.27
2022-10-09T11:28:17.832Z,0.93
2022-10-09T11:30:57.473Z,1.02
2022-10-09T11:33:35.312Z,1.10
2022-10-09T11:36:14.921Z,0.93
2022-10-09T11:39:07.080Z,1.10
2022-10-09T11:41:36.070Z,1.05
2022-10-09T11:44:32.915Z,1.17
2022-10-09T11:47:19.444Z,1.17
2022-10-09T11:50:23.482Z,1.15
2022-10-09T11:53:12.429Z,1.00
2022-10-09T11:55:41.297Z,1.00
2022-10-09T11:58:23.087Z,1.27
2022-10-09T12:00:53.855Z,1.67
2022-10-09T12:03:33.384Z,1.13
2022-10-09T12:06:13.513Z,1.45
2022-10-09T12:09:01.846Z,1.30
2022-10-09T12:11:29.429Z,1.80
2022-10-09T12:13:59.435Z,0.95
2022-10-09T12:16:41.303Z,1.60
2022-10-09T12:19:16.498Z,0.80
2022-10-09T12:21:50.461Z,1.13
2022-10-09T12:24:23.835Z,0.90
2022-10-09T12:26:55.290Z,1.00
2022-10-09T12:29:40.819Z,1.15
2022-10-09T12:32:39.504Z,0.68
2022-10-09T12:35:15.390Z,1.08
2022-10-09T12:37:44.499Z,1.20
2022-10-09T12:40:17.651Z,1.08
2022-10-09T12:42:45.495Z,1.00
2022-10-09T12:45:20.290Z,1.40
2022-10-09T12:47:50.563Z,0.98
2022-10-09T12:50:17.190Z,1.05
2022-10-09T12:52:54.101Z,1.30
2022-10-09T12:55:29.956Z,0.88
2022-10-09T12:58:00.972Z,1.20
2022-10-09T13:00:27.710Z,1.20
2022-10-09T13:02:56.815Z,1.00
2022-10-09T13:05:26.292Z,1.30
2022-10-09T13:07:56.304Z,1.35
2022-10-09T13:10:27.940Z,1.30
2022-10-09T13:12:58.853Z,1.33
2022-10-09T13:15:30.205Z,1.08
2022-10-09T13:17:59.880Z,1.27
2022-10-09T13:20:32.133Z,1.30
2022-10-09T13:23:01.613Z,1.17
2022-10-09T13:25:36.078Z,1.38
2022-10-09T13:28:03.709Z,1.30
2022-10-09T13:30:35.104Z,1.13
2022-10-09T13:33:01.900Z,1.13
2022-10-09T13:35:30.765Z,1.13
2022-10-09T13:37:59.707Z,1.23
2022-10-09T13:40:28.608Z,1.23
2022-10-09T13:42:59.590Z,1.30
2022-10-09T13:45:26.341Z,1.38
2022-10-09T13:47:57.407Z,1.13
2022-10-09T13:50:24.190Z,1.60
2022-10-09T13:52:50.871Z,1.20
2022-10-09T13:55:17.731Z,0.88
2022-10-09T13:57:44.428Z,1.33
2022-10-09T14:00:11.758Z,1.30
2022-10-09T14:02:43.183Z,1.17
2022-10-09T14:05:12.446Z,1.00
2022-10-09T14:07:41.725Z,0.90
2022-10-09T14:10:10.945Z,1.23
2022-10-09T14:12:40.064Z,0.93
2022-10-09T14:15:09.826Z,1.20
2022-10-09T14:17:38.728Z,1.30
2022-10-09T14:20:08.006Z,1.05
2022-10-09T14:22:39.298Z,1.08
2022-10-09T14:25:09.447Z,1.15
2022-10-09T14:27:38.267Z,1.00
2022-10-09T14:30:12.386Z,1.10
2022-10-09T14:35:10.537Z,1.05
2022-10-09T14:37:41.697Z,1.02
2022-10-09T14:40:12.865Z,1.23
2022-10-09T14:42:42.114Z,1.17
2022-10-09T14:45:09.918Z,1.25
2022-10-09T14:47:38.847Z,1.25
2022-10-09T14:50:06.040Z,1.13
2022-10-09T14:52:35.080Z,1.10
2022-10-09T14:55:01.905Z,1.00
2022-10-09T14:57:35.170Z,1.02
2022-10-09T15:00:03.792Z,1.00
2022-10-09T15:02:31.056Z,1.40
2022-10-09T15:04:57.768Z,1.95
2022-10-09T15:07:28.133Z,2.00
2022-10-09T15:09:57.265Z,1.67
2022-10-09T15:12:24.131Z,1.20
2022-10-09T15:14:50.821Z,1.92
2022-10-09T15:17:17.589Z,1.15
2022-10-09T15:19:44.299Z,1.80
2022-10-09T15:22:13.226Z,1.15
2022-10-09T15:24:39.977Z,1.90
2022-10-09T15:27:06.710Z,2.00
2022-10-09T15:29:33.387Z,1.67
2022-10-09T15:32:03.795Z,2.00
2022-10-09T15:34:33.609Z,2.10
2022-10-09T15:37:03.655Z,1.90
2022-10-09T15:39:33.615Z,1.67
2022-10-09T15:42:04.927Z,1.88
2022-10-09T15:44:31.618Z,2.00
2022-10-09T15:46:58.315Z,2.30
2022-10-09T15:49:29.650Z,1.80
2022-10-09T15:51:58.575Z,1.88
2022-10-09T15:54:25.444Z,1.70
2022-10-09T15:56:54.652Z,1.80
2022-10-09T15:59:21.448Z,2.15
2022-10-09T16:01:52.749Z,2.30
2022-10-09T16:04:21.658Z,1.92
2022-10-09T16:06:55.748Z,2.10
2022-10-09T16:09:24.641Z,1.95
2022-10-09T16:11:53.638Z,2.13
2022-10-09T16:14:20.315Z,2.20
2022-10-09T16:16:48.518Z,1.90
2022-10-09T16:19:15.313Z,4.65
2022-10-09T16:21:44.147Z,3.47
2022-10-09T16:24:15.546Z,8.55
2022-10-09T16:26:42.219Z,5.57
2022-10-09T16:29:08.958Z,4.72
2022-10-09T16:31:36.492Z,4.75
2022-10-09T16:34:05.622Z,2.60
2022-10-09T16:36:34.945Z,2.83
2022-10-09T16:39:03.985Z,1.88
2022-10-09T16:41:32.947Z,2.25
2022-10-09T16:44:06.339Z,2.50
2022-10-09T16:49:06.193Z,2.28
2022-10-09T16:51:35.682Z,2.55
2022-10-09T16:54:06.618Z,1.98
2022-10-09T16:56:42.132Z,2.60
2022-10-09T16:59:12.446Z,2.63
2022-10-09T17:01:44.989Z,2.42
2022-10-09T17:04:13.084Z,2.83
2022-10-09T17:06:44.121Z,2.42
2022-10-09T17:09:17.170Z,2.42
2022-10-09T17:11:48.713Z,3.60
2022-10-09T17:14:15.453Z,2.42
2022-10-09T17:16:43.195Z,1.88
2022-10-09T17:19:10.111Z,2.50
2022-10-09T17:21:41.602Z,2.10
2022-10-09T17:24:11.418Z,2.58
2022-10-09T17:26:40.278Z,2.03
2022-10-09T17:29:07.413Z,2.40
2022-10-09T17:31:34.349Z,2.28
2022-10-09T17:34:04.844Z,3.03
2022-10-09T17:36:37.202Z,3.13
2022-10-09T17:39:11.576Z,4.03
2022-10-09T17:41:40.692Z,3.20
2022-10-09T17:44:10.654Z,2.80
2022-10-09T17:46:39.926Z,2.70
2022-10-09T17:49:09.791Z,3.60
2022-10-09T17:51:39.642Z,2.78
2022-10-09T17:54:12.195Z,2.83
2022-10-09T17:56:42.746Z,2.90
2022-10-09T17:59:12.501Z,2.90
2022-10-09T18:01:39.907Z,2.80
2022-10-09T18:04:13.891Z,2.70
2022-10-09T18:06:43.013Z,3.20
2022-10-09T18:09:09.770Z,2.97
2022-10-09T18:11:43.479Z,2.90
2022-10-09T18:14:13.537Z,2.58
2022-10-09T18:16:42.900Z,2.67
2022-10-09T18:19:18.476Z,2.67
2022-10-09T18:21:49.812Z,2.80
2022-10-09T18:24:16.764Z,3.20
2022-10-09T18:26:44.512Z,2.88
2022-10-09T18:29:13.843Z,2.40
2022-10-09T18:31:40.675Z,2.78
2022-10-09T18:34:10.654Z,2.60
2022-10-09T18:36:37.891Z,3.08
2022-10-09T18:39:15.399Z,3.15
2022-10-09T18:41:43.217Z,2.90
2022-10-09T18:44:18.811Z,3.63
2022-10-09T18:46:49.439Z,3.60
2022-10-09T18:49:21.004Z,3.92
2022-10-09T18:51:53.856Z,3.95
2022-10-09T18:54:25.602Z,5.32
2022-10-09T18:56:54.899Z,5.30
2022-10-09T18:59:22.787Z,2.85
2022-10-09T19:01:52.179Z,2.92
2022-10-09T19:04:19.082Z,3.38
2022-10-09T19:06:48.329Z,2.90
2022-10-09T19:09:15.702Z,2.63
2022-10-09T19:11:44.572Z,3.33
2022-10-09T19:14:11.327Z,3.83
2022-10-09T19:16:40.485Z,4.90
2022-10-09T19:19:09.706Z,5.43
2022-10-09T19:21:43.647Z,5.00
2022-10-09T19:24:21.487Z,3.67
2022-10-09T19:26:48.173Z,4.00
2022-10-09T19:29:17.084Z,3.60
2022-10-09T19:31:46.250Z,3.22
2022-10-09T19:34:13.074Z,3.40
2022-10-09T19:36:43.130Z,2.90
2022-10-09T19:39:10.100Z,3.20
2022-10-09T19:41:38.209Z,2.97
2022-10-09T19:44:09.838Z,4.22
2022-10-09T19:46:38.584Z,2.90
2022-10-09T19:49:06.362Z,4.00
2022-10-09T19:51:36.646Z,3.38
2022-10-09T19:54:07.355Z,4.00
2022-10-09T19:56:35.892Z,4.07
2022-10-09T19:59:07.152Z,3.67
2022-10-09T20:01:35.438Z,3.35
2022-10-09T20:04:07.614Z,3.00
2022-10-09T20:06:42.115Z,3.40
2022-10-09T20:09:13.752Z,3.40
2022-10-09T20:11:40.931Z,3.10
2022-10-09T20:14:12.638Z,4.85
2022-10-09T20:16:41.723Z,4.95
2022-10-09T20:19:08.558Z,4.68
2022-10-09T20:21:35.666Z,5.82
2022-10-09T20:24:02.520Z,4.03
2022-10-09T20:26:33.146Z,3.33
2022-10-09T20:29:03.405Z,3.88
2022-10-09T20:31:30.389Z,4.07
2022-10-09T20:34:00.957Z,3.45
2022-10-09T20:36:29.927Z,3.88
2022-10-09T20:38:58.702Z,3.90
2022-10-09T20:41:29.168Z,3.70
2022-10-09T20:44:00.020Z,3.10
2022-10-09T20:46:31.131Z,3.38
2022-10-09T20:48:58.316Z,3.63
2022-10-09T20:51:25.615Z,3.75
2022-10-09T20:53:58.994Z,4.03
2022-10-09T20:56:28.135Z,3.70
2022-10-09T20:59:00.155Z,5.13
2022-10-09T21:04:01.389Z,4.10
2022-10-09T21:06:30.331Z,5.38
2022-10-09T21:09:00.314Z,4.63
2022-10-09T21:11:27.128Z,4.03
2022-10-09T21:13:56.201Z,4.25
2022-10-09T21:16:24.751Z,4.18
2022-10-09T21:18:57.208Z,4.70
2022-10-09T21:21:27.377Z,5.65
2022-10-09T21:24:01.000Z,6.82
2022-10-09T21:26:30.085Z,8.45
2022-10-09T21:28:59.876Z,7.20
2022-10-09T21:31:28.658Z,5.18
2022-10-09T21:34:01.460Z,4.13
2022-10-09T21:36:34.726Z,3.85
2022-10-09T21:39:06.962Z,3.63
2022-10-09T21:41:38.981Z,4.18
2022-10-09T21:46:40.364Z,4.10
2022-10-09T21:49:08.016Z,3.80
2022-10-09T21:51:36.844Z,3.88
2022-10-09T21:54:06.102Z,4.40
2022-10-09T21:56:32.816Z,5.07
2022-10-09T21:59:04.220Z,6.10
2022-10-09T22:01:33.619Z,5.05
2022-10-09T22:04:00.453Z,4.75
2022-10-09T22:06:29.456Z,5.50
2022-10-09T22:09:01.085Z,4.07
2022-10-09T22:11:30.129Z,4.05
2022-10-09T22:13:58.988Z,3.33
2022-10-09T22:16:27.950Z,3.97
2022-10-09T22:18:56.783Z,3.80
2022-10-09T22:21:23.548Z,3.47
2022-10-09T22:23:52.902Z,3.50
2022-10-09T22:26:22.044Z,3.85
2022-10-09T22:28:49.727Z,3.45
2022-10-09T22:31:22.466Z,3.75
2022-10-09T22:33:53.901Z,4.05
2022-10-09T22:36:26.101Z,3.20
2022-10-09T22:38:54.989Z,4.63
2022-10-09T22:41:22.609Z,3.42
2022-10-09T22:43:52.238Z,3.35
2022-10-09T22:46:27.487Z,4.13
2022-10-09T22:48:56.960Z,3.10
2022-10-09T22:51:25.753Z,2.90
2022-10-09T22:53:54.922Z,2.80
2022-10-09T22:56:32.830Z,3.35
2022-10-09T22:58:59.552Z,3.35
2022-10-09T23:01:33.016Z,4.00
2022-10-09T23:04:05.463Z,3.25
2022-10-09T23:06:34.440Z,3.70
2022-10-09T23:09:03.353Z,3.20
2022-10-09T23:11:30.025Z,3.72
2022-10-09T23:13:59.883Z,2.58
2022-10-09T23:16:28.490Z,4.03
2022-10-09T23:18:57.815Z,3.20
2022-10-09T23:21:27.390Z,3.20
2022-10-09T23:23:57.438Z,3.88
2022-10-09T23:26:26.864Z,3.55
2022-10-09T23:28:56.852Z,3.42
2022-10-09T23:31:27.526Z,3.03
2022-10-09T23:33:56.887Z,3.30
2022-10-09T23:36:28.160Z,3.65
2022-10-09T23:38:58.492Z,3.13
2022-10-09T23:41:31.651Z,3.00
2022-10-09T23:43:58.412Z,2.95
2022-10-09T23:46:30.151Z,2.80
2022-10-09T23:48:56.935Z,3.35
2022-10-09T23:51:25.011Z,3.30
2022-10-09T23:53:54.455Z,3.08
2022-10-09T23:56:31.027Z,3.60
2022-10-09T23:58:59.979Z,2.90
